Time;durP1;ratioP1;P1;durP2;ratioP2;P2;SDS_P1;SDS_P2;PMS_P1;PMS_P2;Temp;Humidity;BMP_temperature;BMP_pressure;BME280_temperature;BME280_humidity;BME280_pressure;Samples;Min_cycle;Max_cycle;Signal;HPM_P1;HPM_P2
2022/09/28 08:06:43;;;;;;;2.83;1.10;;;;;;;;;;5068128;28;20378;-36
2022/09/28 08:09:09;;;;;;;2.00;1.00;;;;;;;;;;5063741;28;20067;-36
2022/09/28 08:11:35;;;;;;;2.50;1.33;;;;;;;;;;5042604;28;20415;-39
2022/09/28 08:14:01;;;;;;;5.22;1.38;;;;;;;;;;5041318;28;20530;-36
2022/09/28 08:16:26;;;;;;;1.10;0.73;;;;;;;;;;5043208;28;20048;-38
2022/09/28 08:18:52;;;;;;;1.70;1.23;;;;;;;;;;5044822;28;20083;-38
2022/09/28 08:24:02;;;;;;;4.95;1.80;;;;;;;;;;5041251;28;20480;-37
2022/09/28 08:26:28;;;;;;;3.53;1.40;;;;;;;;;;5047049;28;20029;-37
2022/09/28 08:28:53;;;;;;;4.72;1.42;;;;;;;;;;5038374;28;20893;-38
2022/09/28 08:31:18;;;;;;;4.95;1.30;;;;;;;;;;5044717;28;20021;-38
2022/09/28 08:33:44;;;;;;;2.97;1.30;;;;;;;;;;5044824;28;20018;-38
2022/09/28 08:36:09;;;;;;;2.05;1.38;;;;;;;;;;5041748;28;20017;-37
2022/09/28 08:38:35;;;;;;;2.40;1.20;;;;;;;;;;5043957;28;20029;-37
2022/09/28 08:41:19;;;;;;;3.45;1.15;;;;;;;;;;5045943;28;20063;-38
2022/09/28 08:43:53;;;;;;;1.55;1.08;;;;;;;;;;5045228;28;20060;-37
2022/09/28 08:46:22;;;;;;;3.72;1.30;;;;;;;;;;5042277;28;20041;-39
2022/09/28 08:48:53;;;;;;;3.38;1.30;;;;;;;;;;5035006;28;20073;-38
2022/09/28 08:51:24;;;;;;;7.45;2.00;;;;;;;;;;5041073;28;20134;-39
2022/09/28 08:53:49;;;;;;;2.72;1.13;;;;;;;;;;5045020;28;20103;-37
2022/09/28 08:56:20;;;;;;;3.70;1.23;;;;;;;;;;5043121;28;20021;-38
2022/09/28 08:58:51;;;;;;;2.08;1.10;;;;;;;;;;5042421;28;20787;-37
2022/09/28 09:01:17;;;;;;;2.80;0.95;;;;;;;;;;5041213;28;20480;-38
2022/09/28 09:03:46;;;;;;;2.40;1.35;;;;;;;;;;5044808;28;20017;-38
2022/09/28 09:06:30;;;;;;;3.38;1.35;;;;;;;;;;5060703;28;20127;-38
2022/09/28 09:09:02;;;;;;;1.95;1.30;;;;;;;;;;5062882;28;20099;-39
2022/09/28 09:11:44;;;;;;;3.42;1.52;;;;;;;;;;5028138;28;20083;-39
2022/09/28 09:14:28;;;;;;;2.05;1.48;;;;;;;;;;5039946;28;20021;-36
2022/09/28 09:16:56;;;;;;;3.20;1.40;;;;;;;;;;5042689;28;20045;-38
2022/09/28 09:19:39;;;;;;;2.47;1.35;;;;;;;;;;5018370;28;20048;-38
2022/09/28 09:22:13;;;;;;;2.67;1.40;;;;;;;;;;5034403;28;20033;-38
2022/09/28 09:24:57;;;;;;;8.27;2.08;;;;;;;;;;5033446;28;20044;-37
2022/09/28 09:27:31;;;;;;;4.32;1.30;;;;;;;;;;5027287;28;20017;-38
2022/09/28 09:30:11;;;;;;;4.60;1.55;;;;;;;;;;5030175;28;20082;-38
2022/09/28 09:32:55;;;;;;;2.58;1.30;;;;;;;;;;5040282;28;20025;-37
2022/09/28 09:35:21;;;;;;;4.38;1.30;;;;;;;;;;5045079;28;20221;-40
2022/09/28 09:37:59;;;;;;;2.33;1.00;;;;;;;;;;5030974;28;20026;-39
2022/09/28 09:40:24;;;;;;;3.20;1.02;;;;;;;;;;5048988;28;20052;-41
2022/09/28 09:43:08;;;;;;;1.08;0.90;;;;;;;;;;5032794;28;20469;-39
2022/09/28 09:45:43;;;;;;;1.77;1.00;;;;;;;;;;5031276;28;20041;-38
2022/09/28 09:48:12;;;;;;;3.33;1.23;;;;;;;;;;5032192;28;20420;-38
2022/09/28 09:50:56;;;;;;;3.00;0.80;;;;;;;;;;5034965;28;20109;-38
2022/09/28 09:53:22;;;;;;;3.75;0.75;;;;;;;;;;5042214;28;20021;-38
2022/09/28 09:55:49;;;;;;;3.55;0.88;;;;;;;;;;5035883;28;20103;-38
2022/09/28 09:58:20;;;;;;;1.83;1.05;;;;;;;;;;5032459;28;20025;-38
2022/09/28 10:00:48;;;;;;;2.13;1.10;;;;;;;;;;5032595;28;20405;-38
2022/09/28 10:03:34;;;;;;;0.80;0.68;;;;;;;;;;5032743;28;20025;-39
2022/09/28 10:06:02;;;;;;;0.77;0.57;;;;;;;;;;5032482;28;20045;-38
2022/09/28 10:08:29;;;;;;;1.48;0.65;;;;;;;;;;5032483;28;20026;-38
2022/09/28 10:11:15;;;;;;;0.68;0.60;;;;;;;;;;5032768;28;20032;-37
2022/09/28 10:13:41;;;;;;;1.48;0.40;;;;;;;;;;5032447;28;20637;-38
2022/09/28 10:16:07;;;;;;;0.43;0.40;;;;;;;;;;5032912;28;20035;-38
2022/09/28 10:18:32;;;;;;;2.83;1.55;;;;;;;;;;5028310;28;20049;-39
2022/09/28 10:20:58;;;;;;;0.75;0.65;;;;;;;;;;5032722;28;20095;-38
2022/09/28 10:23:26;;;;;;;2.63;0.65;;;;;;;;;;5030537;28;20029;-39
2022/09/28 10:25:53;;;;;;;5.68;0.65;;;;;;;;;;5026850;28;20037;-40
2022/09/28 10:28:21;;;;;;;2.65;0.70;;;;;;;;;;5028461;28;20025;-38
2022/09/28 10:30:46;;;;;;;1.00;0.50;;;;;;;;;;5030362;28;20087;-37
2022/09/28 10:33:31;;;;;;;2.20;0.50;;;;;;;;;;5042141;28;20481;-38
2022/09/28 10:35:58;;;;;;;1.23;0.50;;;;;;;;;;5027895;28;20434;-38
2022/09/28 10:38:23;;;;;;;0.52;0.50;;;;;;;;;;5031211;28;20534;-38
2022/09/28 10:40:58;;;;;;;0.85;0.60;;;;;;;;;;5030287;28;20017;-39
2022/09/28 10:43:29;;;;;;;1.00;0.70;;;;;;;;;;5031812;28;20033;-38
2022/09/28 10:46:04;;;;;;;2.47;0.70;;;;;;;;;;5032416;28;20448;-38
2022/09/28 10:48:32;;;;;;;3.33;1.30;;;;;;;;;;5029386;28;20025;-38
2022/09/28 10:51:03;;;;;;;1.30;0.70;;;;;;;;;;5029743;28;20112;-39
2022/09/28 10:53:28;;;;;;;0.43;0.40;;;;;;;;;;5029809;28;20033;-38
2022/09/28 10:56:17;;;;;;;1.57;0.53;;;;;;;;;;5030080;28;20384;-38
2022/09/28 10:58:43;;;;;;;3.35;1.33;;;;;;;;;;5027934;28;20254;-42
2022/09/28 11:01:13;;;;;;;3.22;1.25;;;;;;;;;;5029165;28;20397;-39
2022/09/28 11:03:54;;;;;;;5.43;0.93;;;;;;;;;;5037558;28;20132;-39
2022/09/28 11:06:39;;;;;;;4.35;2.55;;;;;;;;;;5030303;28;20080;-39
2022/09/28 11:09:22;;;;;;;2.30;0.70;;;;;;;;;;5031015;28;20117;-38
2022/09/28 11:11:48;;;;;;;1.88;0.80;;;;;;;;;;5031332;28;20025;-39
2022/09/28 11:14:25;;;;;;;0.90;0.70;;;;;;;;;;5031625;28;20047;-39
2022/09/28 11:17:11;;;;;;;0.70;0.70;;;;;;;;;;5031685;28;20021;-39
2022/09/28 11:19:37;;;;;;;2.33;0.60;;;;;;;;;;5023748;28;20037;-36
2022/09/28 11:22:19;;;;;;;0.63;0.47;;;;;;;;;;5026163;28;20526;-39
2022/09/28 11:24:44;;;;;;;11.65;2.22;;;;;;;;;;5025413;28;20030;-40
2022/09/28 11:27:18;;;;;;;2.97;1.08;;;;;;;;;;5027825;28;20117;-47
2022/09/28 11:29:50;;;;;;;1.33;0.80;;;;;;;;;;5026042;28;20686;-38
2022/09/28 11:32:15;;;;;;;0.90;0.80;;;;;;;;;;5032834;28;20362;-39
2022/09/28 11:34:45;;;;;;;0.95;0.60;;;;;;;;;;5019748;28;20049;-39
2022/09/28 11:37:17;;;;;;;2.83;1.20;;;;;;;;;;5026670;28;20406;-42
2022/09/28 11:40:01;;;;;;;7.53;1.17;;;;;;;;;;5023741;28;20520;-39
2022/09/28 11:42:36;;;;;;;2.30;0.85;;;;;;;;;;5032625;28;20032;-39
2022/09/28 11:45:09;;;;;;;4.07;0.82;;;;;;;;;;5024164;28;20037;-39
2022/09/28 11:47:35;;;;;;;1.63;0.85;;;;;;;;;;5029449;28;20491;-40
2022/09/28 11:50:03;;;;;;;2.08;0.90;;;;;;;;;;5030039;28;20025;-39
2022/09/28 11:52:31;;;;;;;2.53;0.90;;;;;;;;;;5030245;28;20029;-39
2022/09/28 11:55:15;;;;;;;1.87;0.70;;;;;;;;;;5029747;28;20029;-37
2022/09/28 11:57:42;;;;;;;1.13;0.55;;;;;;;;;;5029765;28;20048;-37
2022/09/28 12:00:15;;;;;;;0.98;0.40;;;;;;;;;;5028668;28;20025;-38
2022/09/28 12:02:44;;;;;;;4.55;0.70;;;;;;;;;;5029453;28;20030;-40
2022/09/28 12:05:35;;;;;;;1.48;0.60;;;;;;;;;;5037310;28;20071;-37
2022/09/28 12:08:03;;;;;;;1.05;0.63;;;;;;;;;;5036135;28;20354;-38
2022/09/28 12:10:38;;;;;;;0.73;0.40;;;;;;;;;;5025525;28;20100;-37
2022/09/28 12:13:26;;;;;;;4.72;0.55;;;;;;;;;;5018880;28;20029;-37
2022/09/28 12:15:53;;;;;;;1.80;0.32;;;;;;;;;;5016910;28;20036;-37
2022/09/28 12:18:28;;;;;;;2.85;0.50;;;;;;;;;;5028379;28;20020;-38
2022/09/28 12:21:16;;;;;;;0.47;0.38;;;;;;;;;;5028482;28;20025;-37
2022/09/28 12:23:42;;;;;;;0.63;0.40;;;;;;;;;;5028820;28;20038;-37
2022/09/28 12:26:26;;;;;;;1.90;0.40;;;;;;;;;;5028185;28;20045;-38
2022/09/28 12:28:55;;;;;;;2.13;0.60;;;;;;;;;;5028243;28;20223;-38
2022/09/28 12:31:21;;;;;;;1.40;0.50;;;;;;;;;;5029480;28;20018;-38
2022/09/28 12:33:47;;;;;;;1.95;0.57;;;;;;;;;;5046131;28;20028;-37
2022/09/28 12:36:15;;;;;;;2.22;0.50;;;;;;;;;;5033118;28;20033;-37
2022/09/28 12:38:44;;;;;;;0.75;0.43;;;;;;;;;;5029834;28;20435;-35
2022/09/28 12:41:27;;;;;;;1.10;0.60;;;;;;;;;;5030292;28;20017;-37
2022/09/28 12:43:59;;;;;;;0.52;0.45;;;;;;;;;;5030966;28;20022;-37
2022/09/28 12:46:47;;;;;;;1.50;0.52;;;;;;;;;;5023393;28;20076;-37
2022/09/28 12:49:31;;;;;;;2.13;0.63;;;;;;;;;;5023271;28;20033;-36
2022/09/28 12:52:00;;;;;;;1.98;0.45;;;;;;;;;;5026179;28;20033;-36
2022/09/28 12:54:29;;;;;;;0.70;0.40;;;;;;;;;;5027227;28;20024;-37
2022/09/28 12:56:54;;;;;;;2.25;0.43;;;;;;;;;;5029960;28;20281;-37
2022/09/28 12:59:25;;;;;;;0.50;0.50;;;;;;;;;;5028734;28;20029;-38
2022/09/28 13:02:09;;;;;;;5.07;0.60;;;;;;;;;;5027689;28;20060;-37
2022/09/28 13:04:52;;;;;;;3.50;1.00;;;;;;;;;;5033766;28;20076;-38
2022/09/28 13:07:52;;;;;;;3.38;0.60;;;;;;;;;;5026645;28;20373;-38
2022/09/28 13:10:32;;;;;;;0.82;0.50;;;;;;;;;;5022747;28;20046;-37
2022/09/28 13:12:57;;;;;;;1.40;0.70;;;;;;;;;;5031211;28;20029;-37
2022/09/28 13:15:23;;;;;;;3.60;0.80;;;;;;;;;;5027395;28;20026;-39
2022/09/28 13:17:56;;;;;;;2.75;0.30;;;;;;;;;;5030315;28;20281;-38
2022/09/28 13:20:37;;;;;;;0.38;0.30;;;;;;;;;;5022870;28;20040;-37
2022/09/28 13:23:18;;;;;;;0.93;0.75;;;;;;;;;;5030493;28;20036;-37
2022/09/28 13:25:49;;;;;;;1.23;0.50;;;;;;;;;;5032206;28;20041;-38
2022/09/28 13:28:15;;;;;;;1.58;0.40;;;;;;;;;;5019936;28;20033;-37
2022/09/28 13:30:42;;;;;;;0.60;0.50;;;;;;;;;;5032228;28;20068;-36
2022/09/28 13:33:12;;;;;;;0.52;0.47;;;;;;;;;;5033547;28;20028;-36
2022/09/28 13:35:41;;;;;;;0.95;0.52;;;;;;;;;;5029683;28;20029;-37
2022/09/28 13:38:16;;;;;;;4.30;0.60;;;;;;;;;;5029740;28;20123;-35
2022/09/28 13:41:00;;;;;;;1.13;0.65;;;;;;;;;;5029996;28;20045;-36
2022/09/28 13:43:30;;;;;;;0.95;0.50;;;;;;;;;;5028914;28;20056;-37
2022/09/28 13:45:58;;;;;;;0.82;0.65;;;;;;;;;;5028333;28;20060;-37
2022/09/28 13:48:44;;;;;;;2.38;0.82;;;;;;;;;;5032371;28;20163;-37
2022/09/28 13:51:21;;;;;;;2.30;0.98;;;;;;;;;;5031473;28;20562;-37
2022/09/28 13:54:11;;;;;;;1.58;0.70;;;;;;;;;;5030299;28;20013;-37
2022/09/28 13:56:40;;;;;;;1.20;0.60;;;;;;;;;;5033320;28;20029;-37
2022/09/28 13:59:17;;;;;;;2.58;1.23;;;;;;;;;;5028664;28;20293;-42
2022/09/28 14:02:09;;;;;;;5.18;0.93;;;;;;;;;;5027656;28;20120;-36
2022/09/28 14:04:53;;;;;;;1.35;0.80;;;;;;;;;;5020792;28;20089;-36
2022/09/28 14:07:24;;;;;;;1.42;0.70;;;;;;;;;;5022940;28;20121;-36
2022/09/28 14:10:08;;;;;;;1.13;0.50;;;;;;;;;;5029786;28;20029;-38
2022/09/28 14:12:33;;;;;;;0.95;0.52;;;;;;;;;;5030454;28;20112;-37
2022/09/28 14:14:59;;;;;;;0.70;0.43;;;;;;;;;;5029336;28;20104;-36
2022/09/28 14:17:24;;;;;;;0.40;0.40;;;;;;;;;;5029379;28;20105;-37
2022/09/28 14:20:22;;;;;;;2.42;0.82;;;;;;;;;;5027991;28;20079;-37
2022/09/28 14:23:11;;;;;;;1.65;0.70;;;;;;;;;;5027892;28;20128;-37
2022/09/28 14:25:42;;;;;;;3.40;0.40;;;;;;;;;;5025251;28;20033;-36
2022/09/28 14:28:26;;;;;;;3.83;0.50;;;;;;;;;;5019008;28;20049;-37
2022/09/28 14:30:55;;;;;;;1.58;0.52;;;;;;;;;;5028466;28;20095;-38
2022/09/28 14:33:24;;;;;;;7.25;1.83;;;;;;;;;;5032167;28;20067;-40
2022/09/28 14:35:52;;;;;;;0.77;0.40;;;;;;;;;;5028152;28;20049;-38
2022/09/28 14:41:28;;;;;;;2.00;0.73;;;;;;;;;;5031881;28;20060;-38
2022/09/28 14:43:58;;;;;;;3.40;1.00;;;;;;;;;;5032777;28;20399;-38
2022/09/28 14:46:23;;;;;;;2.80;1.45;;;;;;;;;;5032160;28;20134;-38
2022/09/28 14:48:49;;;;;;;2.00;1.10;;;;;;;;;;5031997;28;20107;-39
2022/09/28 14:51:25;;;;;;;2.85;1.33;;;;;;;;;;5031685;28;20292;-39
2022/09/28 14:53:51;;;;;;;7.05;1.73;;;;;;;;;;5032694;28;20473;-38
2022/09/28 14:56:17;;;;;;;7.50;1.77;;;;;;;;;;5032444;28;20033;-39
2022/09/28 14:58:42;;;;;;;9.70;2.20;;;;;;;;;;5031449;28;20021;-39
2022/09/28 15:01:15;;;;;;;4.80;1.48;;;;;;;;;;5031818;28;20028;-38
2022/09/28 15:03:42;;;;;;;8.45;1.42;;;;;;;;;;5031022;28;20021;-38
2022/09/28 15:06:13;;;;;;;10.23;1.92;;;;;;;;;;5031756;28;20504;-39
2022/09/28 15:08:39;;;;;;;7.90;2.13;;;;;;;;;;5031417;28;20017;-38
2022/09/28 15:11:05;;;;;;;9.13;1.92;;;;;;;;;;5031583;28;20100;-38
2022/09/28 15:13:30;;;;;;;5.05;1.73;;;;;;;;;;5031619;28;20096;-39
2022/09/28 15:16:04;;;;;;;5.82;1.88;;;;;;;;;;5031719;28;20024;-39
2022/09/28 15:18:48;;;;;;;2.47;1.35;;;;;;;;;;5031166;28;20045;-39
2022/09/28 15:21:13;;;;;;;6.35;1.98;;;;;;;;;;5031086;28;20031;-38
2022/09/28 15:23:40;;;;;;;5.38;1.52;;;;;;;;;;5032328;28;20025;-38
2022/09/28 15:26:19;;;;;;;9.05;1.88;;;;;;;;;;5031213;28;20041;-39
2022/09/28 15:28:44;;;;;;;12.57;2.00;;;;;;;;;;5029776;28;20108;-38
2022/09/28 15:31:16;;;;;;;13.43;2.00;;;;;;;;;;5031304;28;20278;-38
2022/09/28 15:36:27;;;;;;;10.50;2.40;;;;;;;;;;5011639;28;20672;-38
2022/09/28 15:39:09;;;;;;;7.18;2.22;;;;;;;;;;5010838;28;20032;-39
2022/09/28 15:41:34;;;;;;;8.63;1.95;;;;;;;;;;5011367;28;20063;-39
2022/09/28 15:44:06;;;;;;;6.75;2.10;;;;;;;;;;5011915;28;20026;-39
2022/09/28 15:46:33;;;;;;;10.85;3.05;;;;;;;;;;5011563;28;20030;-39
2022/09/28 15:49:00;;;;;;;8.63;2.35;;;;;;;;;;5010877;28;20485;-39
2022/09/28 15:51:27;;;;;;;9.35;2.55;;;;;;;;;;5011168;28;20022;-39
2022/09/28 15:54:11;;;;;;;6.75;1.80;;;;;;;;;;5011985;28;20026;-38
2022/09/28 15:56:51;;;;;;;46.17;12.90;;;;;;;;;;5011509;28;20015;-39
2022/09/28 15:59:16;;;;;;;;;;;;;;;;;;5011180;28;20022;-40
2022/09/28 16:01:42;;;;;;;18.03;5.87;;;;;;;;;;5009717;28;20031;-38
2022/09/28 16:04:26;;;;;;;11.65;3.60;;;;;;;;;;5011588;28;20591;-38
2022/09/28 16:07:17;;;;;;;11.95;3.33;;;;;;;;;;5011380;28;20062;-39
2022/09/28 16:09:52;;;;;;;8.70;3.47;;;;;;;;;;5011262;28;20370;-38
2022/09/28 16:12:18;;;;;;;18.13;6.18;;;;;;;;;;5011185;28;20176;-39
2022/09/28 16:14:46;;;;;;;12.32;2.58;;;;;;;;;;5011189;28;20428;-38
2022/09/28 16:17:27;;;;;;;11.80;2.75;;;;;;;;;;5011276;28;20049;-39
2022/09/28 16:19:53;;;;;;;7.30;2.15;;;;;;;;;;5011222;28;20029;-38
2022/09/28 16:22:20;;;;;;;11.95;2.97;;;;;;;;;;5010889;28;20365;-38
2022/09/28 16:24:53;;;;;;;10.38;2.30;;;;;;;;;;5011324;28;20029;-37
2022/09/28 16:27:22;;;;;;;14.32;4.15;;;;;;;;;;5012633;28;20026;-39
2022/09/28 16:30:02;;;;;;;9.48;2.30;;;;;;;;;;5014843;28;20133;-38
2022/09/28 16:32:37;;;;;;;11.82;4.65;;;;;;;;;;5019302;28;20479;-38
2022/09/28 16:35:11;;;;;;;35.70;13.25;;;;;;;;;;5035387;28;20079;-38
2022/09/28 16:37:40;;;;;;;17.33;3.53;;;;;;;;;;5034445;28;20079;-39
2022/09/28 16:40:06;;;;;;;12.48;2.88;;;;;;;;;;5034331;28;20487;-40
2022/09/28 16:42:31;;;;;;;12.07;2.78;;;;;;;;;;5034300;28;20029;-40
2022/09/28 16:44:56;;;;;;;10.70;2.72;;;;;;;;;;5034386;28;20037;-38
2022/09/28 16:47:22;;;;;;;13.23;3.33;;;;;;;;;;5033026;28;20022;-39
2022/09/28 16:49:48;;;;;;;10.02;2.50;;;;;;;;;;5034110;28;20416;-40
2022/09/28 16:55:13;;;;;;;5.43;1.95;;;;;;;;;;5034719;28;20487;-38
2022/09/28 16:55:14;;;;;;;1.88;1.40;;;;;;;;;;5033453;28;20030;-38
2022/09/28 16:57:39;;;;;;;6.18;1.90;;;;;;;;;;5033906;28;20028;-39
2022/09/28 17:00:05;;;;;;;8.23;3.22;;;;;;;;;;5034202;28;20380;-39
2022/09/28 17:02:31;;;;;;;7.43;3.08;;;;;;;;;;5034202;28;20057;-39
2022/09/28 17:04:56;;;;;;;3.90;2.45;;;;;;;;;;5034486;28;20025;-38
2022/09/28 17:07:22;;;;;;;3.25;2.10;;;;;;;;;;5033930;28;20076;-39
2022/09/28 17:09:47;;;;;;;6.65;1.55;;;;;;;;;;5033942;28;20488;-39
2022/09/28 17:12:17;;;;;;;3.70;1.55;;;;;;;;;;5033892;28;20025;-38
2022/09/28 17:14:44;;;;;;;2.15;1.33;;;;;;;;;;5034030;28;20021;-39
2022/09/28 17:17:09;;;;;;;5.68;1.60;;;;;;;;;;5034059;28;20473;-38
2022/09/28 17:19:35;;;;;;;6.47;1.58;;;;;;;;;;5033601;28;20047;-38
2022/09/28 17:22:00;;;;;;;4.97;1.23;;;;;;;;;;5033855;28;20096;-38
2022/09/28 17:24:25;;;;;;;5.50;1.80;;;;;;;;;;5033860;28;20117;-40
2022/09/28 17:26:51;;;;;;;4.88;1.40;;;;;;;;;;5033304;28;20692;-40
2022/09/28 17:29:17;;;;;;;5.07;1.73;;;;;;;;;;5033656;28;20025;-39
2022/09/28 17:31:43;;;;;;;8.82;2.47;;;;;;;;;;5033568;28;20115;-38
2022/09/28 17:34:09;;;;;;;4.68;2.70;;;;;;;;;;5015817;28;20084;-38
2022/09/28 17:36:35;;;;;;;8.95;3.00;;;;;;;;;;5014199;28;20022;-38
2022/09/28 17:39:00;;;;;;;5.65;2.90;;;;;;;;;;5012601;28;20593;-38
2022/09/28 17:41:26;;;;;;;6.20;3.00;;;;;;;;;;5013523;28;20022;-38
2022/09/28 17:43:51;;;;;;;5.40;3.30;;;;;;;;;;5013995;28;20108;-38
2022/09/28 17:46:16;;;;;;;9.02;3.15;;;;;;;;;;5014035;28;20450;-38
2022/09/28 17:48:45;;;;;;;6.10;3.10;;;;;;;;;;5013463;28;20529;-38
2022/09/28 17:51:11;;;;;;;4.55;2.75;;;;;;;;;;5013339;28;20253;-39
2022/09/28 17:53:36;;;;;;;7.57;3.40;;;;;;;;;;5013665;28;20034;-38
2022/09/28 17:56:02;;;;;;;28.00;9.48;;;;;;;;;;5014054;28;20029;-38
2022/09/28 17:58:27;;;;;;;56.60;22.77;;;;;;;;;;5013239;28;20022;-39
2022/09/28 18:00:52;;;;;;;29.73;12.07;;;;;;;;;;5013095;28;20026;-38
2022/09/28 18:03:19;;;;;;;10.18;3.55;;;;;;;;;;5013320;28;20247;-38
2022/09/28 18:05:47;;;;;;;4.75;2.78;;;;;;;;;;5013230;28;20054;-38
2022/09/28 18:08:14;;;;;;;7.38;2.55;;;;;;;;;;5013094;28;20026;-38
2022/09/28 18:10:40;;;;;;;4.45;2.25;;;;;;;;;;5013156;28;20033;-38
2022/09/28 18:13:05;;;;;;;3.97;2.33;;;;;;;;;;5013303;28;20377;-37
2022/09/28 18:15:30;;;;;;;4.15;2.50;;;;;;;;;;5013527;28;20161;-39
2022/09/28 18:17:56;;;;;;;5.20;3.00;;;;;;;;;;5012715;28;20022;-38
2022/09/28 18:20:21;;;;;;;5.65;2.28;;;;;;;;;;5012910;28;20022;-39
2022/09/28 18:22:46;;;;;;;5.40;2.72;;;;;;;;;;5013152;28;20018;-38
2022/09/28 18:25:12;;;;;;;4.07;2.00;;;;;;;;;;5012819;28;20485;-38
2022/09/28 18:27:37;;;;;;;4.75;2.50;;;;;;;;;;5012851;28;20071;-44
2022/09/28 18:30:03;;;;;;;4.68;2.35;;;;;;;;;;5012987;28;20366;-39
2022/09/28 18:32:29;;;;;;;8.77;2.97;;;;;;;;;;5017475;28;20044;-40
2022/09/28 18:34:54;;;;;;;8.32;2.78;;;;;;;;;;5032738;28;20033;-37
2022/09/28 18:37:20;;;;;;;8.20;3.25;;;;;;;;;;5032259;28;20078;-38
2022/09/28 18:39:45;;;;;;;7.65;3.45;;;;;;;;;;5031947;28;20026;-38
2022/09/28 18:42:11;;;;;;;5.22;2.75;;;;;;;;;;5032607;28;20057;-38
2022/09/28 18:44:36;;;;;;;7.00;2.50;;;;;;;;;;5032576;28;20025;-38
2022/09/28 18:47:02;;;;;;;6.88;2.70;;;;;;;;;;5032379;28;20052;-38
2022/09/28 18:49:29;;;;;;;6.63;2.70;;;;;;;;;;5030961;28;20072;-38
2022/09/28 18:51:54;;;;;;;5.07;2.30;;;;;;;;;;5032313;28;20025;-38
2022/09/28 18:54:20;;;;;;;8.48;2.90;;;;;;;;;;5031023;28;20492;-38
2022/09/28 18:56:45;;;;;;;7.30;2.80;;;;;;;;;;5032348;28;20431;-38
2022/09/28 18:59:11;;;;;;;4.40;2.35;;;;;;;;;;5031773;28;20427;-38
2022/09/28 19:01:36;;;;;;;6.82;2.85;;;;;;;;;;5031836;28;20078;-38
2022/09/28 19:04:03;;;;;;;5.50;2.80;;;;;;;;;;5032359;28;20512;-38
2022/09/28 19:06:30;;;;;;;4.43;2.03;;;;;;;;;;5031911;28;20045;-40
2022/09/28 19:08:55;;;;;;;8.90;2.78;;;;;;;;;;5031341;28;20018;-37
2022/09/28 19:11:21;;;;;;;5.93;2.80;;;;;;;;;;5031925;28;20028;-38
2022/09/28 19:13:47;;;;;;;8.88;2.95;;;;;;;;;;5031803;28;20013;-38
2022/09/28 19:16:12;;;;;;;6.82;2.33;;;;;;;;;;5032177;28;20026;-38
2022/09/28 19:18:38;;;;;;;3.10;2.20;;;;;;;;;;5031383;28;20160;-38
2022/09/28 19:21:04;;;;;;;7.93;2.47;;;;;;;;;;5031540;28;20496;-38
2022/09/28 19:23:29;;;;;;;3.28;2.25;;;;;;;;;;5031659;28;20036;-39
2022/09/28 19:25:54;;;;;;;4.57;2.47;;;;;;;;;;5031695;28;20029;-38
2022/09/28 19:28:20;;;;;;;3.85;2.40;;;;;;;;;;5030220;28;20045;-38
2022/09/28 19:30:53;;;;;;;6.25;2.45;;;;;;;;;;5031522;28;20024;-38
2022/09/28 19:33:19;;;;;;;5.20;2.60;;;;;;;;;;5020464;28;20018;-38
2022/09/28 19:35:52;;;;;;;4.43;2.88;;;;;;;;;;5011824;28;20097;-37
2022/09/28 19:38:18;;;;;;;9.57;3.33;;;;;;;;;;5011433;28;20030;-39
2022/09/28 19:40:44;;;;;;;5.35;2.90;;;;;;;;;;5011864;28;20026;-38
2022/09/28 19:43:10;;;;;;;5.85;2.58;;;;;;;;;;5012007;28;20076;-37
2022/09/28 19:45:35;;;;;;;7.32;3.25;;;;;;;;;;5011592;28;20037;-38
2022/09/28 19:48:02;;;;;;;8.80;4.78;;;;;;;;;;5011547;28;20101;-40
2022/09/28 19:50:27;;;;;;;4.53;2.35;;;;;;;;;;5010790;28;20104;-37
2022/09/28 19:52:53;;;;;;;3.97;2.30;;;;;;;;;;5011718;28;20541;-38
2022/09/28 19:55:19;;;;;;;5.30;2.85;;;;;;;;;;5011887;28;20044;-37
2022/09/28 19:57:46;;;;;;;5.35;2.60;;;;;;;;;;5010076;28;20022;-38
2022/09/28 20:00:11;;;;;;;5.32;2.22;;;;;;;;;;5011049;28;20014;-38
2022/09/28 20:02:37;;;;;;;3.10;2.15;;;;;;;;;;5011237;28;20355;-38
2022/09/28 20:05:02;;;;;;;3.25;2.15;;;;;;;;;;5011102;28;20045;-38
2022/09/28 20:07:31;;;;;;;3.70;2.17;;;;;;;;;;5011314;28;20033;-38
2022/09/28 20:09:56;;;;;;;5.82;2.40;;;;;;;;;;5011263;28;20480;-39
2022/09/28 20:12:22;;;;;;;5.28;2.78;;;;;;;;;;5010131;28;20025;-38
2022/09/28 20:14:47;;;;;;;4.25;2.58;;;;;;;;;;5011368;28;20041;-38
2022/09/28 20:17:12;;;;;;;5.40;2.53;;;;;;;;;;5011325;28;20018;-38
2022/09/28 20:19:38;;;;;;;4.63;2.45;;;;;;;;;;5010739;28;20022;-38
2022/09/28 20:22:03;;;;;;;8.25;3.03;;;;;;;;;;5010056;28;20037;-38
2022/09/28 20:24:29;;;;;;;5.40;2.53;;;;;;;;;;5011615;28;20429;-38
2022/09/28 20:26:55;;;;;;;4.10;2.45;;;;;;;;;;5010840;28;20456;-38
2022/09/28 20:29:20;;;;;;;6.38;2.40;;;;;;;;;;4993291;28;20025;-39
2022/09/28 20:31:45;;;;;;;6.05;2.40;;;;;;;;;;5010850;28;20022;-38
2022/09/28 20:34:11;;;;;;;8.30;2.25;;;;;;;;;;5029660;28;20022;-39
2022/09/28 20:36:36;;;;;;;4.63;2.30;;;;;;;;;;5031223;28;20095;-39
2022/09/28 20:39:02;;;;;;;5.45;2.70;;;;;;;;;;5030276;28;20032;-37
2022/09/28 20:41:33;;;;;;;3.38;2.50;;;;;;;;;;5030574;28;20120;-38
2022/09/28 20:43:58;;;;;;;3.95;2.58;;;;;;;;;;5031165;28;20024;-38
2022/09/28 20:46:24;;;;;;;3.80;2.15;;;;;;;;;;5029554;28;20033;-39
2022/09/28 20:48:50;;;;;;;5.20;2.22;;;;;;;;;;5029949;28;20010;-38
2022/09/28 20:51:16;;;;;;;4.85;2.42;;;;;;;;;;5030577;28;20024;-38
2022/09/28 20:53:42;;;;;;;6.43;2.00;;;;;;;;;;5031170;28;20028;-40
2022/09/28 20:56:07;;;;;;;4.18;2.30;;;;;;;;;;5030874;28;20030;-39
2022/09/28 20:58:33;;;;;;;5.35;2.08;;;;;;;;;;5030209;28;20036;-39
2022/09/28 21:01:25;;;;;;;4.18;1.98;;;;;;;;;;5030400;28;20022;-38
2022/09/28 21:03:53;;;;;;;3.83;2.22;;;;;;;;;;5031320;28;20063;-38
2022/09/28 21:06:20;;;;;;;3.70;2.10;;;;;;;;;;5030691;28;20045;-38
2022/09/28 21:08:46;;;;;;;3.10;1.85;;;;;;;;;;5030040;28;20480;-38
2022/09/28 21:11:12;;;;;;;5.80;2.40;;;;;;;;;;5030354;28;20060;-39
2022/09/28 21:13:40;;;;;;;4.47;2.30;;;;;;;;;;5032222;28;20026;-39
2022/09/28 21:16:05;;;;;;;7.05;2.42;;;;;;;;;;5034174;28;20025;-38
2022/09/28 21:18:31;;;;;;;4.55;2.58;;;;;;;;;;5033416;28;20152;-38
2022/09/28 21:20:56;;;;;;;7.57;2.70;;;;;;;;;;5033766;28;20028;-38
2022/09/28 21:23:21;;;;;;;5.10;2.90;;;;;;;;;;5033948;28;20029;-39
2022/09/28 21:25:47;;;;;;;7.20;3.15;;;;;;;;;;5033791;28;20036;-38
2022/09/28 21:28:13;;;;;;;4.43;2.55;;;;;;;;;;5033535;28;20018;-40
2022/09/28 21:30:38;;;;;;;10.43;4.72;;;;;;;;;;5033248;28;20025;-39
2022/09/28 21:33:04;;;;;;;4.80;3.08;;;;;;;;;;5024795;28;20112;-39
2022/09/28 21:35:30;;;;;;;9.88;3.70;;;;;;;;;;5014202;28;20473;-38
2022/09/28 21:37:56;;;;;;;9.60;3.80;;;;;;;;;;5013591;28;20022;-39
2022/09/28 21:40:21;;;;;;;11.25;4.18;;;;;;;;;;5012127;28;20025;-39
2022/09/28 21:42:47;;;;;;;11.85;4.65;;;;;;;;;;5013905;28;20101;-39
2022/09/28 21:45:12;;;;;;;13.18;5.10;;;;;;;;;;5013788;28;20038;-38
2022/09/28 21:47:40;;;;;;;15.35;5.93;;;;;;;;;;5013693;28;20028;-38
2022/09/28 21:50:05;;;;;;;11.95;5.30;;;;;;;;;;5013164;28;20018;-39
2022/09/28 21:52:31;;;;;;;11.25;4.50;;;;;;;;;;5013413;28;20026;-38
2022/09/28 21:54:56;;;;;;;8.23;4.20;;;;;;;;;;5013901;28;20052;-38
2022/09/28 21:57:21;;;;;;;10.07;4.68;;;;;;;;;;5013428;28;20022;-39
2022/09/28 21:59:47;;;;;;;8.88;3.17;;;;;;;;;;5011467;28;20025;-38
2022/09/28 22:02:12;;;;;;;7.30;3.50;;;;;;;;;;5013175;28;20051;-38
2022/09/28 22:04:37;;;;;;;6.20;4.18;;;;;;;;;;5013601;28;20067;-38
2022/09/28 22:07:03;;;;;;;5.43;2.78;;;;;;;;;;5013328;28;20613;-40
2022/09/28 22:09:28;;;;;;;4.78;3.33;;;;;;;;;;5012721;28;20108;-38
2022/09/28 22:11:53;;;;;;;6.40;2.88;;;;;;;;;;5013042;28;20029;-38
2022/09/28 22:14:19;;;;;;;7.20;4.30;;;;;;;;;;5012895;28;20026;-38
2022/09/28 22:16:44;;;;;;;6.65;3.60;;;;;;;;;;5013287;28;20026;-38
2022/09/28 22:19:09;;;;;;;5.88;3.88;;;;;;;;;;5012685;28;20018;-38
2022/09/28 22:21:35;;;;;;;6.63;3.88;;;;;;;;;;5011554;28;20018;-39
2022/09/28 22:24:01;;;;;;;6.28;4.13;;;;;;;;;;5013375;28;20100;-38
2022/09/28 22:26:27;;;;;;;9.25;3.88;;;;;;;;;;5011281;28;20125;-38
2022/09/28 22:28:54;;;;;;;5.78;3.90;;;;;;;;;;5012444;28;20364;-38
2022/09/28 22:31:21;;;;;;;9.88;4.72;;;;;;;;;;5012533;28;20026;-38
2022/09/28 22:33:47;;;;;;;5.40;3.90;;;;;;;;;;5028150;28;20029;-37
2022/09/28 22:36:15;;;;;;;7.18;3.95;;;;;;;;;;5032946;28;20079;-38
2022/09/28 22:38:40;;;;;;;6.07;4.65;;;;;;;;;;5031699;28;20030;-41
2022/09/28 22:41:06;;;;;;;7.85;4.90;;;;;;;;;;5032243;28;20037;-38
2022/09/28 22:43:31;;;;;;;9.55;5.07;;;;;;;;;;5032350;28;20108;-39
2022/09/28 22:46:01;;;;;;;7.22;4.57;;;;;;;;;;5031387;28;20034;-38
2022/09/28 22:48:26;;;;;;;8.63;4.90;;;;;;;;;;5030590;28;20021;-39
2022/09/28 22:50:51;;;;;;;7.65;4.90;;;;;;;;;;5030375;28;20029;-39
2022/09/28 22:53:17;;;;;;;6.32;4.55;;;;;;;;;;5032565;28;20078;-38
2022/09/28 22:55:43;;;;;;;7.22;4.70;;;;;;;;;;5032312;28;20016;-39
2022/09/28 22:58:08;;;;;;;8.90;4.95;;;;;;;;;;5031684;28;20469;-38
2022/09/28 23:00:33;;;;;;;11.75;4.20;;;;;;;;;;5031477;28;20025;-39
2022/09/28 23:02:59;;;;;;;9.13;4.78;;;;;;;;;;5032100;28;20469;-38
2022/09/28 23:05:25;;;;;;;8.18;4.85;;;;;;;;;;5031448;28;20060;-41
2022/09/28 23:07:50;;;;;;;7.40;4.78;;;;;;;;;;5031789;28;20444;-39
2022/09/28 23:10:16;;;;;;;12.00;5.65;;;;;;;;;;5031530;28;20018;-38